createdAt,value
2022-10-09T00:00:05.648Z,0.000000
2022-10-09T00:01:00.892Z,5.500000
2022-10-09T00:02:01.075Z,5.500000
2022-10-09T00:03:00.910Z,5.500000
2022-10-09T00:04:00.974Z,5.500000
2022-10-09T00:05:05.093Z,5.500000
2022-10-09T00:06:01.003Z,5.500000
2022-10-09T00:07:00.929Z,5.500000
2022-10-09T00:08:01.006Z,0.000000
2022-10-09T00:09:00.953Z,0.000000
2022-10-09T00:10:04.109Z,5.400000
2022-10-09T00:11:00.998Z,5.400000
2022-10-09T00:12:01.080Z,5.400000
2022-10-09T00:13:00.980Z,5.400000
2022-10-09T00:14:01.049Z,5.400000
2022-10-09T00:15:03.801Z,5.400000
2022-10-09T00:16:01.068Z,5.400000
2022-10-09T00:17:01.218Z,5.400000
2022-10-09T00:18:01.122Z,0.000000
2022-10-09T00:19:01.014Z,0.000000
2022-10-09T00:20:04.099Z,0.000000
2022-10-09T00:21:01.038Z,0.000000
2022-10-09T00:22:01.114Z,0.000000
2022-10-09T00:23:01.076Z,0.000000
2022-10-09T00:24:01.138Z,0.000000
2022-10-09T00:25:03.923Z,0.000000
2022-10-09T00:26:01.133Z,0.000000
2022-10-09T00:27:01.083Z,0.000000
2022-10-09T00:28:01.144Z,0.000000
2022-10-09T00:29:01.191Z,0.000000
2022-10-09T00:30:04.222Z,0.000000
2022-10-09T00:31:01.150Z,0.000000
2022-10-09T00:32:01.171Z,0.000000
2022-10-09T00:33:01.107Z,0.000000
2022-10-09T00:34:01.390Z,0.000000
2022-10-09T00:35:03.898Z,0.000000
2022-10-09T00:36:01.210Z,0.000000
2022-10-09T00:37:01.143Z,0.000000
2022-10-09T00:38:01.207Z,0.000000
2022-10-09T00:39:01.165Z,0.000000
2022-10-09T00:40:04.492Z,0.000000
2022-10-09T00:41:01.178Z,0.000000
2022-10-09T00:42:01.267Z,0.000000
2022-10-09T00:43:01.192Z,0.000000
2022-10-09T00:44:00.275Z,0.000000
2022-10-09T00:45:04.611Z,0.000000
2022-10-09T00:46:00.324Z,0.000000
2022-10-09T00:47:00.220Z,0.000000
2022-10-09T00:48:00.310Z,0.000000
2022-10-09T00:49:00.230Z,0.000000
2022-10-09T00:50:03.258Z,0.000000
2022-10-09T00:51:00.254Z,0.000000
2022-10-09T00:52:00.332Z,0.000000
2022-10-09T00:53:00.269Z,0.000000
2022-10-09T00:54:00.334Z,0.000000
2022-10-09T00:55:02.955Z,0.000000
2022-10-09T00:56:00.342Z,0.000000
2022-10-09T00:57:00.300Z,0.000000
2022-10-09T00:58:00.385Z,0.000000
2022-10-09T00:59:00.292Z,0.000000
2022-10-09T01:00:03.401Z,0.000000
2022-10-09T01:01:00.420Z,4.600000
2022-10-09T01:02:00.540Z,4.600000
2022-10-09T01:03:00.360Z,4.600000
2022-10-09T01:04:00.536Z,4.000000
2022-10-09T01:05:03.068Z,4.000000
2022-10-09T01:06:00.474Z,4.000000
2022-10-09T01:07:00.381Z,4.000000
2022-10-09T01:08:00.442Z,4.000000
2022-10-09T01:09:00.397Z,0.000000
2022-10-09T01:10:03.564Z,0.000000
2022-10-09T01:11:00.413Z,0.000000
2022-10-09T01:12:00.499Z,0.000000
2022-10-09T01:13:00.422Z,0.000000
2022-10-09T01:14:00.500Z,0.000000
2022-10-09T01:15:03.267Z,0.000000
2022-10-09T01:16:00.583Z,0.000000
2022-10-09T01:17:00.457Z,0.000000
2022-10-09T01:18:00.541Z,0.000000
2022-10-09T01:19:00.469Z,0.000000
2022-10-09T01:20:03.593Z,0.000000
2022-10-09T01:21:00.504Z,0.000000
2022-10-09T01:22:00.631Z,0.000000
2022-10-09T01:23:00.507Z,0.000000
2022-10-09T01:24:00.605Z,0.000000
2022-10-09T01:25:03.262Z,0.000000
2022-10-09T01:26:00.592Z,0.000000
2022-10-09T01:27:00.556Z,0.000000
2022-10-09T01:28:00.653Z,0.000000
2022-10-09T01:29:00.553Z,0.000000
2022-10-09T01:30:03.624Z,0.000000
2022-10-09T01:31:00.613Z,0.000000
2022-10-09T01:32:00.624Z,0.000000
2022-10-09T01:33:00.606Z,0.000000
2022-10-09T01:34:00.666Z,0.000000
2022-10-09T01:35:03.367Z,0.000000
2022-10-09T01:36:00.687Z,0.000000
2022-10-09T01:37:00.609Z,0.000000
2022-10-09T01:38:00.699Z,0.000000
2022-10-09T01:39:00.635Z,0.000000
2022-10-09T01:40:05.851Z,0.000000
2022-10-09T01:41:00.647Z,0.000000
2022-10-09T01:42:00.732Z,0.000000
2022-10-09T01:43:00.664Z,0.000000
2022-10-09T01:44:00.753Z,0.000000
2022-10-09T01:45:03.478Z,0.000000
2022-10-09T01:46:00.805Z,0.000000
2022-10-09T01:47:00.696Z,0.000000
2022-10-09T01:48:00.776Z,0.000000
2022-10-09T01:49:00.698Z,0.000000
2022-10-09T01:50:03.884Z,0.000000
2022-10-09T01:51:00.736Z,0.000000
2022-10-09T01:52:00.843Z,0.000000
2022-10-09T01:53:00.744Z,0.000000
2022-10-09T01:54:00.847Z,0.000000
2022-10-09T01:55:03.582Z,0.000000
2022-10-09T01:56:00.832Z,0.000000
2022-10-09T01:57:00.774Z,0.000000
2022-10-09T01:58:00.861Z,0.000000
2022-10-09T01:59:00.774Z,0.000000
2022-10-09T02:00:03.956Z,0.000000
2022-10-09T02:01:00.811Z,0.000000
2022-10-09T02:02:01.086Z,0.000000
2022-10-09T02:03:00.915Z,0.000000
2022-10-09T02:04:00.928Z,0.000000
2022-10-09T02:05:03.631Z,0.000000
2022-10-09T02:06:00.933Z,0.000000
2022-10-09T02:07:00.852Z,0.000000
2022-10-09T02:08:00.923Z,0.000000
2022-10-09T02:09:00.893Z,0.000000
2022-10-09T02:10:04.168Z,0.000000
2022-10-09T02:11:00.878Z,0.000000
2022-10-09T02:12:00.975Z,0.000000
2022-10-09T02:13:00.900Z,0.000000
2022-10-09T02:14:00.959Z,0.000000
2022-10-09T02:15:03.649Z,0.000000
2022-10-09T02:16:01.104Z,0.000000
2022-10-09T02:17:00.918Z,0.000000
2022-10-09T02:18:01.010Z,0.000000
2022-10-09T02:19:00.944Z,4.800000
2022-10-09T02:20:03.959Z,4.800000
2022-10-09T02:21:00.961Z,4.800000
2022-10-09T02:22:01.069Z,0.000000
2022-10-09T02:23:00.960Z,0.000000
2022-10-09T02:24:01.067Z,4.100000
2022-10-09T02:25:03.731Z,4.100000
2022-10-09T02:26:01.169Z,4.100000
2022-10-09T02:27:01.001Z,4.100000
2022-10-09T02:28:01.106Z,4.100000
2022-10-09T02:29:00.999Z,4.000000
2022-10-09T02:30:04.281Z,4.000000
2022-10-09T02:31:01.026Z,4.000000
2022-10-09T02:32:01.088Z,4.000000
2022-10-09T02:33:01.043Z,4.000000
2022-10-09T02:34:01.123Z,4.000000
2022-10-09T02:35:04.591Z,0.000000
2022-10-09T02:36:01.142Z,0.000000
2022-10-09T02:37:01.060Z,4.000000
2022-10-09T02:38:01.132Z,4.000000
2022-10-09T02:39:01.076Z,4.000000
2022-10-09T02:40:09.769Z,5.200000
2022-10-09T02:41:01.097Z,5.200000
2022-10-09T02:42:01.201Z,5.200000
2022-10-09T02:43:01.107Z,5.200000
2022-10-09T02:44:01.192Z,5.200000
2022-10-09T02:45:04.042Z,0.000000
2022-10-09T02:46:01.269Z,0.000000
2022-10-09T02:47:01.134Z,0.000000
2022-10-09T02:48:01.232Z,0.000000
2022-10-09T02:49:01.137Z,0.000000
2022-10-09T02:50:04.289Z,0.000000
2022-10-09T02:51:01.181Z,0.000000
2022-10-09T02:52:01.254Z,0.000000
2022-10-09T02:53:01.165Z,0.000000
2022-10-09T02:54:01.273Z,0.000000
2022-10-09T02:55:03.932Z,0.000000
2022-10-09T02:56:01.251Z,0.000000
2022-10-09T02:57:01.208Z,0.000000
2022-10-09T02:58:01.324Z,4.800000
2022-10-09T02:59:01.205Z,4.800000
2022-10-09T03:00:03.420Z,4.800000
2022-10-09T03:01:00.238Z,4.800000
2022-10-09T03:02:00.572Z,4.800000
2022-10-09T03:03:00.352Z,0.000000
2022-10-09T03:04:00.365Z,0.000000
2022-10-09T03:05:03.014Z,0.000000
2022-10-09T03:06:00.352Z,0.000000
2022-10-09T03:07:00.283Z,0.000000
2022-10-09T03:08:00.350Z,0.000000
2022-10-09T03:09:00.305Z,0.000000
2022-10-09T03:10:03.651Z,0.000000
2022-10-09T03:11:00.316Z,0.000000
2022-10-09T03:12:00.397Z,0.000000
2022-10-09T03:13:00.326Z,0.000000
2022-10-09T03:14:00.418Z,0.000000
2022-10-09T03:15:03.000Z,4.000000
2022-10-09T03:16:00.529Z,4.000000
2022-10-09T03:17:00.357Z,4.000000
2022-10-09T03:18:00.436Z,0.000000
2022-10-09T03:19:00.374Z,0.000000
2022-10-09T03:20:03.502Z,4.500000
2022-10-09T03:21:00.381Z,4.500000
2022-10-09T03:22:00.487Z,4.500000
2022-10-09T03:23:00.392Z,0.000000
2022-10-09T03:24:00.475Z,0.000000
2022-10-09T03:25:03.311Z,0.000000
2022-10-09T03:26:00.484Z,0.000000
2022-10-09T03:27:00.435Z,0.000000
2022-10-09T03:28:00.533Z,0.000000
2022-10-09T03:29:00.436Z,0.000000
2022-10-09T03:30:05.157Z,0.000000
2022-10-09T03:31:00.492Z,0.000000
2022-10-09T03:32:00.552Z,0.000000
2022-10-09T03:33:00.492Z,0.000000
2022-10-09T03:34:00.559Z,0.000000
2022-10-09T03:35:03.198Z,0.000000
2022-10-09T03:36:00.568Z,0.000000
2022-10-09T03:37:00.496Z,0.000000
2022-10-09T03:38:00.589Z,0.000000
2022-10-09T03:39:00.528Z,0.000000
2022-10-09T03:40:03.667Z,0.000000
2022-10-09T03:41:00.531Z,0.000000
2022-10-09T03:42:00.619Z,0.000000
2022-10-09T03:43:00.541Z,4.000000
2022-10-09T03:44:00.648Z,4.000000
2022-10-09T03:45:03.280Z,0.000000
2022-10-09T03:46:01.270Z,0.000000
2022-10-09T03:47:00.628Z,0.000000
2022-10-09T03:48:00.827Z,0.000000
2022-10-09T03:49:00.597Z,0.000000
2022-10-09T03:50:03.655Z,0.000000
2022-10-09T03:51:00.624Z,0.000000
2022-10-09T03:52:00.709Z,0.000000
2022-10-09T03:53:00.625Z,0.000000
2022-10-09T03:54:00.707Z,0.000000
2022-10-09T03:55:03.265Z,0.000000
2022-10-09T03:56:00.722Z,0.000000
2022-10-09T03:57:00.665Z,0.000000
2022-10-09T03:58:00.772Z,0.000000
2022-10-09T03:59:00.671Z,0.000000
2022-10-09T04:00:04.950Z,4.000000
2022-10-09T04:01:00.757Z,4.000000
2022-10-09T04:02:00.796Z,4.000000
2022-10-09T04:03:00.846Z,4.000000
2022-10-09T04:04:00.814Z,4.000000
2022-10-09T04:05:03.388Z,4.000000
2022-10-09T04:06:00.818Z,0.000000
2022-10-09T04:07:00.745Z,0.000000
2022-10-09T04:08:00.810Z,0.000000
2022-10-09T04:09:00.770Z,0.000000
2022-10-09T04:10:04.106Z,0.000000
2022-10-09T04:11:00.795Z,0.000000
2022-10-09T04:12:00.909Z,0.000000
2022-10-09T04:13:00.794Z,0.000000
2022-10-09T04:14:00.905Z,5.700000
2022-10-09T04:15:03.592Z,5.700000
2022-10-09T04:16:01.097Z,0.000000
2022-10-09T04:17:00.829Z,0.000000
2022-10-09T04:18:00.952Z,0.000000
2022-10-09T04:19:00.851Z,0.000000
2022-10-09T04:20:03.968Z,0.000000
2022-10-09T04:21:00.871Z,0.000000
2022-10-09T04:22:00.958Z,0.000000
2022-10-09T04:23:00.904Z,4.800000
2022-10-09T04:24:00.962Z,4.800000
2022-10-09T04:25:04.395Z,4.800000
2022-10-09T04:26:00.973Z,0.000000
2022-10-09T04:27:00.931Z,0.000000
2022-10-09T04:28:01.029Z,0.000000
2022-10-09T04:29:00.931Z,0.000000
2022-10-09T04:30:04.095Z,0.000000
2022-10-09T04:31:00.944Z,0.000000
2022-10-09T04:32:01.074Z,0.000000
2022-10-09T04:33:00.956Z,0.000000
2022-10-09T04:34:01.131Z,0.000000
2022-10-09T04:35:03.958Z,0.000000
2022-10-09T04:36:01.049Z,0.000000
2022-10-09T04:37:00.977Z,4.700000
2022-10-09T04:38:01.048Z,4.700000
2022-10-09T04:39:00.986Z,4.400000
2022-10-09T04:40:04.539Z,4.400000
2022-10-09T04:41:00.989Z,4.400000
2022-10-09T04:42:01.083Z,4.300000
2022-10-09T04:43:01.063Z,4.300000
2022-10-09T04:44:01.075Z,0.000000
2022-10-09T04:45:04.092Z,0.000000
2022-10-09T04:46:01.289Z,0.000000
2022-10-09T04:47:01.023Z,0.000000
2022-10-09T04:48:01.117Z,0.000000
2022-10-09T04:49:01.023Z,4.000000
2022-10-09T04:50:04.123Z,4.000000
2022-10-09T04:51:01.045Z,4.000000
2022-10-09T04:52:01.134Z,4.000000
2022-10-09T04:53:01.046Z,4.000000
2022-10-09T04:54:01.137Z,0.000000
2022-10-09T04:55:03.897Z,0.000000
2022-10-09T04:56:01.152Z,0.000000
2022-10-09T04:57:01.080Z,0.000000
2022-10-09T04:58:01.197Z,0.000000
2022-10-09T04:59:01.093Z,0.000000
2022-10-09T05:00:04.751Z,0.000000
2022-10-09T05:01:01.137Z,0.000000
2022-10-09T05:02:01.189Z,0.000000
2022-10-09T05:03:01.115Z,0.000000
2022-10-09T05:04:01.207Z,0.000000
2022-10-09T05:05:05.709Z,0.000000
2022-10-09T05:06:01.220Z,0.000000
2022-10-09T05:07:01.152Z,0.000000
2022-10-09T05:08:01.229Z,0.000000
2022-10-09T05:09:01.166Z,0.000000
2022-10-09T05:10:04.244Z,0.000000
2022-10-09T05:11:01.177Z,0.000000
2022-10-09T05:12:01.263Z,0.000000
2022-10-09T05:13:01.195Z,0.000000
2022-10-09T05:14:01.254Z,0.000000
2022-10-09T05:15:04.078Z,0.000000
2022-10-09T05:16:00.385Z,0.000000
2022-10-09T05:17:13.468Z,0.000000
2022-10-09T05:18:00.313Z,0.000000
2022-10-09T05:19:00.223Z,0.000000
2022-10-09T05:20:03.969Z,0.000000
2022-10-09T05:21:00.277Z,0.000000
2022-10-09T05:22:00.485Z,0.000000
2022-10-09T05:23:00.267Z,0.000000
2022-10-09T05:24:00.353Z,0.000000
2022-10-09T05:25:03.215Z,0.000000
2022-10-09T05:26:00.363Z,0.000000
2022-10-09T05:27:00.299Z,0.000000
2022-10-09T05:28:00.411Z,0.000000
2022-10-09T05:29:00.301Z,0.000000
2022-10-09T05:30:03.544Z,0.000000
2022-10-09T05:31:00.326Z,0.000000
2022-10-09T05:32:00.468Z,0.000000
2022-10-09T05:33:00.346Z,0.000000
2022-10-09T05:34:00.441Z,0.000000
2022-10-09T05:35:03.253Z,0.000000
2022-10-09T05:36:00.460Z,0.000000
2022-10-09T05:37:00.406Z,0.000000
2022-10-09T05:38:00.437Z,0.000000
2022-10-09T05:39:00.385Z,0.000000
2022-10-09T05:40:03.637Z,0.000000
2022-10-09T05:41:00.395Z,0.000000
2022-10-09T05:42:00.471Z,0.000000
2022-10-09T05:43:00.395Z,0.000000
2022-10-09T05:44:00.463Z,0.000000
2022-10-09T05:45:03.483Z,0.000000
2022-10-09T05:46:00.595Z,0.000000
2022-10-09T05:47:00.433Z,0.000000
2022-10-09T05:48:00.512Z,0.000000
2022-10-09T05:49:00.433Z,0.000000
2022-10-09T05:50:03.586Z,0.000000
2022-10-09T05:51:00.469Z,0.000000
2022-10-09T05:52:00.557Z,0.000000
2022-10-09T05:53:00.486Z,0.000000
2022-10-09T05:54:00.561Z,0.000000
2022-10-09T05:55:03.602Z,0.000000
2022-10-09T05:56:03.558Z,0.000000
2022-10-09T05:57:00.486Z,0.000000
2022-10-09T05:58:00.603Z,0.000000
2022-10-09T05:59:00.520Z,0.000000
2022-10-09T06:00:04.890Z,0.000000
2022-10-09T06:01:00.602Z,0.000000
2022-10-09T06:02:00.632Z,0.000000
2022-10-09T06:03:00.525Z,0.000000
2022-10-09T06:04:00.607Z,0.000000
2022-10-09T06:05:04.632Z,0.000000
2022-10-09T06:06:00.616Z,0.000000
2022-10-09T06:07:00.552Z,0.000000
2022-10-09T06:08:00.591Z,0.000000
2022-10-09T06:09:00.584Z,0.000000
2022-10-09T06:10:03.885Z,0.000000
2022-10-09T06:11:00.558Z,0.000000
2022-10-09T06:12:00.662Z,0.000000
2022-10-09T06:13:00.577Z,0.000000
2022-10-09T06:14:00.648Z,0.000000
2022-10-09T06:15:03.973Z,0.000000
2022-10-09T06:16:00.694Z,0.000000
2022-10-09T06:17:00.647Z,0.000000
2022-10-09T06:18:00.724Z,0.000000
2022-10-09T06:19:00.638Z,0.000000
2022-10-09T06:20:03.879Z,0.000000
2022-10-09T06:21:00.656Z,0.000000
2022-10-09T06:22:00.759Z,0.000000
2022-10-09T06:23:00.657Z,0.000000
2022-10-09T06:24:00.786Z,0.000000
2022-10-09T06:25:03.441Z,0.000000
2022-10-09T06:26:00.749Z,0.000000
2022-10-09T06:27:00.696Z,0.000000
2022-10-09T06:28:00.787Z,0.000000
2022-10-09T06:29:00.703Z,0.000000
2022-10-09T06:30:03.909Z,0.000000
2022-10-09T06:31:00.780Z,0.000000
2022-10-09T06:32:00.821Z,0.000000
2022-10-09T06:33:00.744Z,0.000000
2022-10-09T06:34:00.849Z,0.000000
2022-10-09T06:35:04.873Z,0.000000
2022-10-09T06:36:08.568Z,0.000000
2022-10-09T06:37:00.758Z,0.000000
2022-10-09T06:38:00.838Z,0.000000
2022-10-09T06:39:00.786Z,0.000000
2022-10-09T06:40:05.826Z,0.000000
2022-10-09T06:41:00.787Z,0.000000
2022-10-09T06:42:00.898Z,0.000000
2022-10-09T06:43:00.799Z,0.000000
2022-10-09T06:44:00.873Z,0.000000
2022-10-09T06:45:03.813Z,0.000000
2022-10-09T06:46:00.991Z,0.000000
2022-10-09T06:47:00.822Z,0.000000
2022-10-09T06:48:00.926Z,0.000000
2022-10-09T06:49:00.839Z,0.000000
2022-10-09T06:50:05.760Z,4.000000
2022-10-09T06:51:00.860Z,4.000000
2022-10-09T06:52:00.941Z,4.000000
2022-10-09T06:53:00.863Z,5.500000
2022-10-09T06:54:00.986Z,5.500000
2022-10-09T06:55:03.858Z,5.500000
2022-10-09T06:56:01.007Z,5.500000
2022-10-09T06:57:00.915Z,5.500000
2022-10-09T06:58:01.014Z,5.500000
2022-10-09T06:59:00.917Z,5.500000
2022-10-09T07:00:04.187Z,0.000000
2022-10-09T07:01:00.940Z,0.000000
2022-10-09T07:02:01.160Z,0.000000
2022-10-09T07:03:01.030Z,0.000000
2022-10-09T07:04:01.073Z,0.000000
2022-10-09T07:05:03.893Z,0.000000
2022-10-09T07:06:01.080Z,0.000000
2022-10-09T07:07:01.000Z,0.000000
2022-10-09T07:08:01.073Z,4.500000
2022-10-09T07:09:01.049Z,4.500000
2022-10-09T07:10:04.766Z,5.100000
2022-10-09T07:11:01.039Z,5.100000
2022-10-09T07:12:01.177Z,5.100000
2022-10-09T07:13:01.054Z,5.000000
2022-10-09T07:14:01.138Z,5.000000
2022-10-09T07:15:04.164Z,5.000000
2022-10-09T07:16:04.683Z,5.300000
2022-10-09T07:17:01.070Z,5.300000
2022-10-09T07:18:01.181Z,5.300000
2022-10-09T07:19:01.130Z,6.700000
2022-10-09T07:20:04.194Z,6.700000
2022-10-09T07:21:01.129Z,5.900000
2022-10-09T07:22:01.330Z,5.900000
2022-10-09T07:23:01.134Z,0.000000
2022-10-09T07:24:01.212Z,0.000000
2022-10-09T07:25:04.044Z,0.000000
2022-10-09T07:26:01.207Z,0.000000
2022-10-09T07:27:00.168Z,0.000000
2022-10-09T07:28:00.293Z,0.000000
2022-10-09T07:29:00.181Z,0.000000
2022-10-09T07:30:03.361Z,0.000000
2022-10-09T07:31:00.237Z,4.300000
2022-10-09T07:32:00.277Z,4.300000
2022-10-09T07:33:00.212Z,0.000000
2022-10-09T07:34:00.302Z,0.000000
2022-10-09T07:35:03.041Z,0.000000
2022-10-09T07:36:00.498Z,0.000000
2022-10-09T07:37:00.240Z,0.000000
2022-10-09T07:38:00.308Z,0.000000
2022-10-09T07:39:00.263Z,0.000000
2022-10-09T07:40:05.778Z,0.000000
2022-10-09T07:41:00.265Z,4.700000
2022-10-09T07:42:00.405Z,4.700000
2022-10-09T07:43:00.284Z,4.700000
2022-10-09T07:44:00.410Z,4.900000
2022-10-09T07:45:03.047Z,4.900000
2022-10-09T07:46:00.570Z,5.400000
2022-10-09T07:47:00.309Z,5.400000
2022-10-09T07:48:00.411Z,5.400000
2022-10-09T07:49:00.321Z,6.400000
2022-10-09T07:50:04.628Z,6.400000
2022-10-09T07:51:00.349Z,6.400000
2022-10-09T07:52:00.442Z,6.400000
2022-10-09T07:53:00.354Z,6.400000
2022-10-09T07:54:00.471Z,6.600000
2022-10-09T07:55:03.129Z,6.600000
2022-10-09T07:56:00.449Z,6.600000
2022-10-09T07:57:00.396Z,6.600000
2022-10-09T07:58:00.584Z,6.600000
2022-10-09T07:59:00.396Z,6.700000
2022-10-09T08:00:03.991Z,6.700000
2022-10-09T08:01:00.475Z,6.700000
2022-10-09T08:02:00.568Z,6.700000
2022-10-09T08:03:00.471Z,6.700000
2022-10-09T08:04:00.580Z,7.000000
2022-10-09T08:05:04.916Z,7.000000
2022-10-09T08:06:00.544Z,7.000000
2022-10-09T08:07:00.472Z,7.000000
2022-10-09T08:08:00.547Z,7.400000
2022-10-09T08:09:00.495Z,7.400000
2022-10-09T08:10:04.781Z,7.400000
2022-10-09T08:11:00.500Z,7.900000
2022-10-09T08:12:07.787Z,7.900000
2022-10-09T08:13:00.511Z,7.900000
2022-10-09T08:14:00.593Z,7.900000
2022-10-09T08:15:03.410Z,7.900000
2022-10-09T08:16:00.769Z,8.100000
2022-10-09T08:17:00.547Z,8.100000
2022-10-09T08:18:00.640Z,8.100000
2022-10-09T08:19:00.558Z,8.100000
2022-10-09T08:20:03.792Z,8.100000
2022-10-09T08:21:00.587Z,4.000000
2022-10-09T08:22:03.485Z,4.000000
2022-10-09T08:23:00.593Z,4.000000
2022-10-09T08:24:00.678Z,5.100000
2022-10-09T08:25:03.811Z,5.100000
2022-10-09T08:26:00.710Z,6.500000
2022-10-09T08:27:00.623Z,6.500000
2022-10-09T08:28:00.729Z,7.200000
2022-10-09T08:29:00.634Z,7.200000
2022-10-09T08:30:04.212Z,7.200000
2022-10-09T08:31:00.718Z,7.200000
2022-10-09T08:32:00.750Z,7.200000
2022-10-09T08:33:00.673Z,7.200000
2022-10-09T08:34:00.784Z,6.300000
2022-10-09T08:35:03.978Z,6.300000
2022-10-09T08:36:00.766Z,6.300000
2022-10-09T08:37:00.694Z,7.400000
2022-10-09T08:38:00.776Z,7.400000
2022-10-09T08:39:00.714Z,9.000000
2022-10-09T08:40:05.642Z,9.000000
2022-10-09T08:41:00.725Z,9.000000
2022-10-09T08:42:00.849Z,9.000000
2022-10-09T08:43:00.735Z,9.000000
2022-10-09T08:44:00.811Z,6.800000
2022-10-09T08:45:03.665Z,6.800000
2022-10-09T08:46:00.911Z,6.800000
2022-10-09T08:47:00.763Z,6.800000
2022-10-09T08:48:00.871Z,6.800000
2022-10-09T08:49:00.786Z,7.200000
2022-10-09T08:50:05.812Z,7.200000
2022-10-09T08:51:00.814Z,8.700000
2022-10-09T08:52:00.897Z,8.700000
2022-10-09T08:53:00.821Z,8.700000
2022-10-09T08:54:00.913Z,8.700000
2022-10-09T08:55:03.957Z,8.700000
2022-10-09T08:56:00.919Z,8.700000
2022-10-09T08:57:00.859Z,10.700000
2022-10-09T08:58:00.958Z,10.700000
2022-10-09T08:59:00.852Z,10.700000
2022-10-09T09:00:05.898Z,10.700000
2022-10-09T09:01:00.912Z,10.700000
2022-10-09T09:02:01.018Z,15.300000
2022-10-09T09:03:00.944Z,15.300000
2022-10-09T09:04:01.008Z,15.300000
2022-10-09T09:05:03.675Z,15.300000
2022-10-09T09:06:01.001Z,15.300000
2022-10-09T09:07:00.949Z,12.000000
2022-10-09T09:08:01.014Z,12.000000
2022-10-09T09:09:00.959Z,13.600000
2022-10-09T09:10:04.280Z,13.600000
2022-10-09T09:11:00.972Z,13.600000
2022-10-09T09:12:01.040Z,14.000000
2022-10-09T09:13:00.980Z,14.000000
2022-10-09T09:14:01.053Z,13.600000
2022-10-09T09:15:04.019Z,13.600000
2022-10-09T09:16:01.206Z,13.600000
2022-10-09T09:17:01.017Z,16.900000
2022-10-09T09:18:01.090Z,16.900000
2022-10-09T09:19:01.023Z,16.900000
2022-10-09T09:20:04.121Z,16.900000
2022-10-09T09:21:01.045Z,16.900000
2022-10-09T09:22:01.136Z,15.600000
2022-10-09T09:23:01.054Z,15.600000
2022-10-09T09:24:01.129Z,15.600000
2022-10-09T09:25:04.085Z,16.900000
2022-10-09T09:26:01.139Z,16.900000
2022-10-09T09:27:01.092Z,16.900000
2022-10-09T09:28:01.166Z,17.300000
2022-10-09T09:29:01.219Z,17.300000
2022-10-09T09:30:04.543Z,13.700000
2022-10-09T09:31:01.146Z,13.700000
2022-10-09T09:32:01.191Z,13.800000
2022-10-09T09:33:01.130Z,13.800000
2022-10-09T09:34:01.217Z,13.800000
2022-10-09T09:35:03.817Z,13.800000
2022-10-09T09:36:01.244Z,13.800000
2022-10-09T09:37:01.152Z,15.000000
2022-10-09T09:38:01.233Z,15.000000
2022-10-09T09:40:35.496Z,17.500000
2022-10-09T09:41:01.174Z,17.500000
2022-10-09T09:42:00.259Z,21.200000
2022-10-09T09:43:04.650Z,21.200000
2022-10-09T09:44:00.270Z,14.200000
2022-10-09T09:45:04.401Z,14.200000
2022-10-09T09:46:00.299Z,14.200000
2022-10-09T09:47:00.298Z,14.200000
2022-10-09T09:48:00.313Z,14.200000
2022-10-09T09:49:00.225Z,14.200000
2022-10-09T09:50:03.469Z,12.800000
2022-10-09T09:51:23.605Z,12.800000
2022-10-09T09:52:00.522Z,12.800000
2022-10-09T09:53:00.276Z,18.400000
2022-10-09T09:54:00.369Z,18.400000
2022-10-09T09:55:04.829Z,18.400000
2022-10-09T09:56:00.376Z,18.400000
2022-10-09T09:57:13.049Z,19.100000
2022-10-09T09:58:00.401Z,19.100000
2022-10-09T09:59:00.323Z,19.100000
2022-10-09T10:00:03.611Z,13.600000
2022-10-09T10:01:00.502Z,13.600000
2022-10-09T10:02:00.527Z,13.600000
2022-10-09T10:03:00.379Z,13.600000
2022-10-09T10:04:00.520Z,13.600000
2022-10-09T10:05:03.271Z,12.800000
2022-10-09T10:06:00.471Z,12.800000
2022-10-09T10:07:00.402Z,8.900000
2022-10-09T10:08:00.490Z,8.900000
2022-10-09T10:09:00.418Z,8.900000
2022-10-09T10:10:03.798Z,14.300000
2022-10-09T10:11:00.430Z,14.300000
2022-10-09T10:12:00.519Z,12.800000
2022-10-09T10:13:00.443Z,12.800000
2022-10-09T10:14:00.518Z,12.800000
2022-10-09T10:15:03.470Z,19.100000
2022-10-09T10:16:00.595Z,19.100000
2022-10-09T10:17:00.465Z,16.200000
2022-10-09T10:18:00.555Z,16.200000
2022-10-09T10:19:00.484Z,16.200000
2022-10-09T10:20:03.663Z,17.200000
2022-10-09T10:21:00.520Z,17.200000
2022-10-09T10:22:00.613Z,17.200000
2022-10-09T10:23:00.522Z,19.300000
2022-10-09T10:25:03.308Z,19.300000
2022-10-09T10:26:00.615Z,19.300000
2022-10-09T10:27:00.566Z,19.300000
2022-10-09T10:28:00.806Z,13.400000
2022-10-09T10:29:00.561Z,13.400000
2022-10-09T10:30:03.896Z,12.900000
2022-10-09T10:31:00.634Z,12.900000
2022-10-09T10:32:00.669Z,12.900000
2022-10-09T10:33:00.619Z,11.900000
2022-10-09T10:34:00.702Z,11.900000
2022-10-09T10:35:03.451Z,16.100000
2022-10-09T10:36:00.699Z,16.100000
2022-10-09T10:37:03.208Z,16.100000
2022-10-09T10:38:00.697Z,19.100000
2022-10-09T10:39:00.647Z,19.100000
2022-10-09T10:40:05.736Z,19.100000
2022-10-09T10:41:00.662Z,19.100000
2022-10-09T10:42:07.976Z,19.100000
2022-10-09T10:43:00.657Z,17.200000
2022-10-09T10:44:00.731Z,17.200000
2022-10-09T10:45:03.677Z,17.200000
2022-10-09T10:46:00.767Z,17.800000
2022-10-09T10:47:00.745Z,17.800000
2022-10-09T10:48:00.792Z,18.700000
2022-10-09T10:49:00.715Z,18.700000
2022-10-09T10:50:05.819Z,18.700000
2022-10-09T10:51:00.760Z,18.900000
2022-10-09T10:52:00.853Z,18.900000
2022-10-09T10:53:00.768Z,19.600000
2022-10-09T10:54:00.845Z,19.600000
2022-10-09T10:55:03.768Z,19.200000
2022-10-09T10:56:05.038Z,19.200000
2022-10-09T10:57:00.804Z,19.200000
2022-10-09T10:58:00.900Z,19.200000
2022-10-09T10:59:00.791Z,19.200000
2022-10-09T11:00:04.271Z,19.200000
2022-10-09T11:01:00.899Z,20.100000
2022-10-09T11:02:00.911Z,20.100000
2022-10-09T11:03:00.927Z,20.100000
2022-10-09T11:04:00.952Z,20.100000
2022-10-09T11:05:03.558Z,20.100000
2022-10-09T11:06:00.950Z,18.800000
2022-10-09T11:07:00.883Z,18.800000
2022-10-09T11:08:00.943Z,18.400000
2022-10-09T11:09:00.900Z,18.400000
2022-10-09T11:10:05.189Z,18.400000
2022-10-09T11:11:01.030Z,18.200000
2022-10-09T11:12:01.018Z,18.200000
2022-10-09T11:13:01.288Z,16.200000
2022-10-09T11:14:00.979Z,16.200000
2022-10-09T11:15:03.862Z,16.200000
2022-10-09T11:16:01.087Z,16.200000
2022-10-09T11:17:00.940Z,16.200000
2022-10-09T11:18:01.027Z,11.300000
2022-10-09T11:19:00.949Z,11.300000
2022-10-09T11:20:05.642Z,11.300000
2022-10-09T11:21:00.979Z,16.100000
2022-10-09T11:22:01.103Z,16.100000
2022-10-09T11:23:00.975Z,21.100000
2022-10-09T11:24:01.057Z,21.100000
2022-10-09T11:25:03.768Z,19.100000
2022-10-09T11:26:01.075Z,19.100000
2022-10-09T11:27:03.398Z,19.100000
2022-10-09T11:28:01.108Z,16.800000
2022-10-09T11:29:01.015Z,16.800000
2022-10-09T11:30:05.886Z,16.800000
2022-10-09T11:31:01.025Z,14.300000
2022-10-09T11:32:01.240Z,14.300000
2022-10-09T11:33:01.049Z,18.500000
2022-10-09T11:34:01.129Z,18.500000
2022-10-09T11:35:03.875Z,18.500000
2022-10-09T11:36:01.130Z,18.500000
2022-10-09T11:37:01.057Z,18.500000
2022-10-09T11:38:01.113Z,18.500000
2022-10-09T11:39:01.073Z,21.200000
2022-10-09T11:40:04.311Z,21.200000
2022-10-09T11:41:03.920Z,13.300000